sensor_id;sensor_type;location;lat;lon;timestamp;temperature;humidity
41678;DHT22;27364;49.026;8.712;2022-07-24T00:01:59;20.30;99.90
41678;DHT22;27364;49.026;8.712;2022-07-24T00:04:25;20.30;99.90
41678;DHT22;27364;49.026;8.712;2022-07-24T00:06:51;20.20;99.90
41678;DHT22;27364;49.026;8.712;2022-07-24T00:09:16;20.20;99.90
41678;DHT22;27364;49.026;8.712;2022-07-24T00:11:42;20.10;99.90
41678;DHT22;27364;49.026;8.712;2022-07-24T00:14:08;20.10;99.90
41678;DHT22;27364;49.026;8.712;2022-07-24T00:16:33;20.10;99.90
41678;DHT22;27364;49.026;8.712;2022-07-24T00:18:59;20.10;99.90
41678;DHT22;27364;49.026;8.712;2022-07-24T00:21:24;20.00;99.90
41678;DHT22;27364;49.026;8.712;2022-07-24T00:23:50;19.90;99.90
41678;DHT22;27364;49.026;8.712;2022-07-24T00:26:15;19.90;99.90
41678;DHT22;27364;49.026;8.712;2022-07-24T00:28:41;19.80;99.90
41678;DHT22;27364;49.026;8.712;2022-07-24T00:31:06;19.70;99.90
41678;DHT22;27364;49.026;8.712;2022-07-24T00:33:32;19.70;99.90
41678;DHT22;27364;49.026;8.712;2022-07-24T00:35:58;19.70;99.90
41678;DHT22;27364;49.026;8.712;2022-07-24T00:38:23;19.70;99.90
41678;DHT22;27364;49.026;8.712;2022-07-24T00:40:49;19.70;99.90
41678;DHT22;27364;49.026;8.712;2022-07-24T00:43:14;19.80;99.90
41678;DHT22;27364;49.026;8.712;2022-07-24T00:45:42;19.80;99.90
41678;DHT22;27364;49.026;8.712;2022-07-24T00:48:07;19.80;99.90
41678;DHT22;27364;49.026;8.712;2022-07-24T00:50:34;19.80;99.90
41678;DHT22;27364;49.026;8.712;2022-07-24T00:52:59;19.80;99.90
41678;DHT22;27364;49.026;8.712;2022-07-24T00:55:26;19.90;99.90
41678;DHT22;27364;49.026;8.712;2022-07-24T00:57:52;19.90;99.90
41678;DHT22;27364;49.026;8.712;2022-07-24T01:00:19;19.90;99.90
41678;DHT22;27364;49.026;8.712;2022-07-24T01:02:45;19.90;99.90
41678;DHT22;27364;49.026;8.712;2022-07-24T01:05:11;19.90;99.90
41678;DHT22;27364;49.026;8.712;2022-07-24T01:07:38;19.90;99.90
41678;DHT22;27364;49.026;8.712;2022-07-24T01:10:04;19.90;99.90
41678;DHT22;27364;49.026;8.712;2022-07-24T01:12:35;19.80;99.90
41678;DHT22;27364;49.026;8.712;2022-07-24T01:15:00;19.80;99.90
41678;DHT22;27364;49.026;8.712;2022-07-24T01:17:31;19.80;99.90
41678;DHT22;27364;49.026;8.712;2022-07-24T01:19:57;19.80;99.90
41678;DHT22;27364;49.026;8.712;2022-07-24T01:22:24;19.70;99.90
41678;DHT22;27364;49.026;8.712;2022-07-24T01:24:51;19.60;99.90
41678;DHT22;27364;49.026;8.712;2022-07-24T01:27:17;19.60;99.90
41678;DHT22;27364;49.026;8.712;2022-07-24T01:29:46;19.50;99.90
41678;DHT22;27364;49.026;8.712;2022-07-24T01:32:11;19.40;99.90
41678;DHT22;27364;49.026;8.712;2022-07-24T01:34:37;19.30;99.90
41678;DHT22;27364;49.026;8.712;2022-07-24T01:37:02;19.20;99.90
41678;DHT22;27364;49.026;8.712;2022-07-24T01:39:28;19.20;99.90
41678;DHT22;27364;49.026;8.712;2022-07-24T01:41:53;19.10;99.90
41678;DHT22;27364;49.026;8.712;2022-07-24T01:44:19;19.10;99.90
41678;DHT22;27364;49.026;8.712;2022-07-24T01:46:44;19.10;99.90
41678;DHT22;27364;49.026;8.712;2022-07-24T01:49:10;19.10;99.90
41678;DHT22;27364;49.026;8.712;2022-07-24T01:51:36;19.10;99.90
41678;DHT22;27364;49.026;8.712;2022-07-24T01:54:01;19.10;99.90
41678;DHT22;27364;49.026;8.712;2022-07-24T01:56:31;19.20;99.90
41678;DHT22;27364;49.026;8.712;2022-07-24T01:58:57;19.10;99.90
41678;DHT22;27364;49.026;8.712;2022-07-24T02:01:22;19.20;99.90
41678;DHT22;27364;49.026;8.712;2022-07-24T02:03:48;19.20;99.90
41678;DHT22;27364;49.026;8.712;2022-07-24T02:06:14;19.20;99.90
41678;DHT22;27364;49.026;8.712;2022-07-24T02:08:40;19.20;99.90
41678;DHT22;27364;49.026;8.712;2022-07-24T02:11:05;19.10;99.90
41678;DHT22;27364;49.026;8.712;2022-07-24T02:13:31;19.10;99.90
41678;DHT22;27364;49.026;8.712;2022-07-24T02:15:56;19.00;99.90
41678;DHT22;27364;49.026;8.712;2022-07-24T02:18:23;18.90;99.90
41678;DHT22;27364;49.026;8.712;2022-07-24T02:20:48;18.90;99.90
41678;DHT22;27364;49.026;8.712;2022-07-24T02:23:14;18.90;99.90
41678;DHT22;27364;49.026;8.712;2022-07-24T02:25:44;18.80;99.90
41678;DHT22;27364;49.026;8.712;2022-07-24T02:28:10;18.80;99.90
41678;DHT22;27364;49.026;8.712;2022-07-24T02:30:37;18.80;99.90
41678;DHT22;27364;49.026;8.712;2022-07-24T02:33:03;18.90;99.90
41678;DHT22;27364;49.026;8.712;2022-07-24T02:35:28;18.90;99.90
41678;DHT22;27364;49.026;8.712;2022-07-24T02:37:54;18.80;99.90
41678;DHT22;27364;49.026;8.712;2022-07-24T02:40:19;18.80;99.90
41678;DHT22;27364;49.026;8.712;2022-07-24T02:42:46;18.80;99.90
41678;DHT22;27364;49.026;8.712;2022-07-24T02:45:12;18.70;99.90
41678;DHT22;27364;49.026;8.712;2022-07-24T02:48:07;18.70;99.90
41678;DHT22;27364;49.026;8.712;2022-07-24T02:50:33;18.60;99.90
41678;DHT22;27364;49.026;8.712;2022-07-24T02:53:01;18.50;99.90
41678;DHT22;27364;49.026;8.712;2022-07-24T02:55:27;18.40;99.90
41678;DHT22;27364;49.026;8.712;2022-07-24T02:57:54;18.30;99.90
41678;DHT22;27364;49.026;8.712;2022-07-24T03:00:21;18.30;99.90
41678;DHT22;27364;49.026;8.712;2022-07-24T03:02:46;18.30;99.90
41678;DHT22;27364;49.026;8.712;2022-07-24T03:05:13;18.20;99.90
41678;DHT22;27364;49.026;8.712;2022-07-24T03:07:39;18.20;99.90
41678;DHT22;27364;49.026;8.712;2022-07-24T03:10:05;18.10;99.90
41678;DHT22;27364;49.026;8.712;2022-07-24T03:12:31;18.10;99.90
41678;DHT22;27364;49.026;8.712;2022-07-24T03:14:57;18.10;99.90
41678;DHT22;27364;49.026;8.712;2022-07-24T03:17:22;18.10;99.90
41678;DHT22;27364;49.026;8.712;2022-07-24T03:19:48;18.10;99.90
41678;DHT22;27364;49.026;8.712;2022-07-24T03:22:13;18.10;99.90
41678;DHT22;27364;49.026;8.712;2022-07-24T03:24:39;18.10;99.90
41678;DHT22;27364;49.026;8.712;2022-07-24T03:27:04;18.10;99.90
41678;DHT22;27364;49.026;8.712;2022-07-24T03:29:30;18.10;99.90
41678;DHT22;27364;49.026;8.712;2022-07-24T03:31:55;18.20;99.90
41678;DHT22;27364;49.026;8.712;2022-07-24T03:34:21;18.10;99.90
41678;DHT22;27364;49.026;8.712;2022-07-24T03:36:47;18.10;99.90
41678;DHT22;27364;49.026;8.712;2022-07-24T03:39:12;18.00;99.90
41678;DHT22;27364;49.026;8.712;2022-07-24T03:41:38;17.90;99.90
41678;DHT22;27364;49.026;8.712;2022-07-24T03:44:04;17.90;99.90
41678;DHT22;27364;49.026;8.712;2022-07-24T03:46:29;17.90;99.90
41678;DHT22;27364;49.026;8.712;2022-07-24T03:48:55;17.90;99.90
41678;DHT22;27364;49.026;8.712;2022-07-24T03:51:21;17.90;99.90
41678;DHT22;27364;49.026;8.712;2022-07-24T03:53:47;17.90;99.90
41678;DHT22;27364;49.026;8.712;2022-07-24T03:56:13;17.90;99.90
41678;DHT22;27364;49.026;8.712;2022-07-24T03:58:39;17.90;99.90
41678;DHT22;27364;49.026;8.712;2022-07-24T04:01:04;17.90;99.90
41678;DHT22;27364;49.026;8.712;2022-07-24T04:03:30;17.90;99.90
41678;DHT22;27364;49.026;8.712;2022-07-24T04:05:55;17.80;99.90
41678;DHT22;27364;49.026;8.712;2022-07-24T04:08:21;17.90;99.90
41678;DHT22;27364;49.026;8.712;2022-07-24T04:10:46;17.90;99.90
41678;DHT22;27364;49.026;8.712;2022-07-24T04:13:13;17.90;99.90
41678;DHT22;27364;49.026;8.712;2022-07-24T04:15:38;17.90;99.90
41678;DHT22;27364;49.026;8.712;2022-07-24T04:18:04;17.80;99.90
41678;DHT22;27364;49.026;8.712;2022-07-24T04:20:30;17.90;99.90
41678;DHT22;27364;49.026;8.712;2022-07-24T04:22:55;17.90;99.90
41678;DHT22;27364;49.026;8.712;2022-07-24T04:25:21;17.80;99.90
41678;DHT22;27364;49.026;8.712;2022-07-24T04:27:46;17.80;99.90
41678;DHT22;27364;49.026;8.712;2022-07-24T04:30:13;17.80;99.90
41678;DHT22;27364;49.026;8.712;2022-07-24T04:32:39;17.70;99.90
41678;DHT22;27364;49.026;8.712;2022-07-24T04:35:05;17.70;99.90
41678;DHT22;27364;49.026;8.712;2022-07-24T04:37:31;17.70;99.90
41678;DHT22;27364;49.026;8.712;2022-07-24T04:39:56;17.70;99.90
41678;DHT22;27364;49.026;8.712;2022-07-24T04:42:22;17.70;99.90
41678;DHT22;27364;49.026;8.712;2022-07-24T04:44:48;17.70;99.90
41678;DHT22;27364;49.026;8.712;2022-07-24T04:47:14;17.70;99.90
41678;DHT22;27364;49.026;8.712;2022-07-24T04:49:39;17.80;99.90
41678;DHT22;27364;49.026;8.712;2022-07-24T04:52:05;17.80;99.90
41678;DHT22;27364;49.026;8.712;2022-07-24T04:54:30;17.80;99.90
41678;DHT22;27364;49.026;8.712;2022-07-24T04:56:56;17.80;99.90
41678;DHT22;27364;49.026;8.712;2022-07-24T04:59:21;17.80;99.90
41678;DHT22;27364;49.026;8.712;2022-07-24T05:01:47;17.80;99.90
41678;DHT22;27364;49.026;8.712;2022-07-24T05:04:12;17.80;99.90
41678;DHT22;27364;49.026;8.712;2022-07-24T05:06:39;17.80;99.90
41678;DHT22;27364;49.026;8.712;2022-07-24T05:09:04;17.80;99.90
41678;DHT22;27364;49.026;8.712;2022-07-24T05:11:30;17.90;99.90
41678;DHT22;27364;49.026;8.712;2022-07-24T05:13:55;18.00;99.90
41678;DHT22;27364;49.026;8.712;2022-07-24T05:16:21;18.00;99.90
41678;DHT22;27364;49.026;8.712;2022-07-24T05:18:46;18.00;99.90
41678;DHT22;27364;49.026;8.712;2022-07-24T05:21:12;18.10;99.90
41678;DHT22;27364;49.026;8.712;2022-07-24T05:23:39;18.20;99.90
41678;DHT22;27364;49.026;8.712;2022-07-24T05:26:05;18.20;99.90
41678;DHT22;27364;49.026;8.712;2022-07-24T05:28:32;18.30;99.90
41678;DHT22;27364;49.026;8.712;2022-07-24T05:30:57;18.30;99.90
41678;DHT22;27364;49.026;8.712;2022-07-24T05:33:23;18.30;99.90
41678;DHT22;27364;49.026;8.712;2022-07-24T05:35:48;18.40;99.90
41678;DHT22;27364;49.026;8.712;2022-07-24T05:38:14;18.40;99.90
41678;DHT22;27364;49.026;8.712;2022-07-24T05:40:39;18.50;99.90
41678;DHT22;27364;49.026;8.712;2022-07-24T05:43:05;18.50;99.90
41678;DHT22;27364;49.026;8.712;2022-07-24T05:45:30;18.50;99.90
41678;DHT22;27364;49.026;8.712;2022-07-24T05:47:56;18.60;99.90
41678;DHT22;27364;49.026;8.712;2022-07-24T05:50:21;18.60;99.90
41678;DHT22;27364;49.026;8.712;2022-07-24T05:52:47;18.70;99.90
41678;DHT22;27364;49.026;8.712;2022-07-24T05:55:13;18.80;99.90
41678;DHT22;27364;49.026;8.712;2022-07-24T05:57:38;18.90;99.90
41678;DHT22;27364;49.026;8.712;2022-07-24T06:00:04;19.00;99.90
41678;DHT22;27364;49.026;8.712;2022-07-24T06:02:30;19.00;99.90
41678;DHT22;27364;49.026;8.712;2022-07-24T06:04:55;19.10;99.90
41678;DHT22;27364;49.026;8.712;2022-07-24T06:07:21;19.20;99.90
41678;DHT22;27364;49.026;8.712;2022-07-24T06:09:46;19.30;99.90
41678;DHT22;27364;49.026;8.712;2022-07-24T06:12:12;19.40;99.90
41678;DHT22;27364;49.026;8.712;2022-07-24T06:14:37;19.50;99.90
41678;DHT22;27364;49.026;8.712;2022-07-24T06:17:03;19.50;99.90
41678;DHT22;27364;49.026;8.712;2022-07-24T06:19:29;19.60;99.90
41678;DHT22;27364;49.026;8.712;2022-07-24T06:21:54;19.70;99.90
41678;DHT22;27364;49.026;8.712;2022-07-24T06:24:20;19.70;99.90
41678;DHT22;27364;49.026;8.712;2022-07-24T06:26:45;19.80;99.90
41678;DHT22;27364;49.026;8.712;2022-07-24T06:29:11;19.90;99.90
41678;DHT22;27364;49.026;8.712;2022-07-24T06:31:36;20.00;99.90
41678;DHT22;27364;49.026;8.712;2022-07-24T06:34:02;20.10;99.90
41678;DHT22;27364;49.026;8.712;2022-07-24T06:36:27;20.10;99.90
41678;DHT22;27364;49.026;8.712;2022-07-24T06:38:53;20.20;99.90
41678;DHT22;27364;49.026;8.712;2022-07-24T06:41:19;20.20;99.90
41678;DHT22;27364;49.026;8.712;2022-07-24T06:43:45;20.30;99.90
41678;DHT22;27364;49.026;8.712;2022-07-24T06:46:10;20.40;99.90
41678;DHT22;27364;49.026;8.712;2022-07-24T06:48:36;20.40;99.90
41678;DHT22;27364;49.026;8.712;2022-07-24T06:51:03;20.50;99.90
41678;DHT22;27364;49.026;8.712;2022-07-24T06:53:29;20.60;99.90
41678;DHT22;27364;49.026;8.712;2022-07-24T06:55:54;20.60;99.90
41678;DHT22;27364;49.026;8.712;2022-07-24T06:58:21;20.70;99.90
41678;DHT22;27364;49.026;8.712;2022-07-24T07:00:47;20.80;99.90
41678;DHT22;27364;49.026;8.712;2022-07-24T07:03:13;20.80;99.90
41678;DHT22;27364;49.026;8.712;2022-07-24T07:05:39;20.90;99.90
41678;DHT22;27364;49.026;8.712;2022-07-24T07:08:04;21.00;99.90
41678;DHT22;27364;49.026;8.712;2022-07-24T07:10:30;21.10;99.90
41678;DHT22;27364;49.026;8.712;2022-07-24T07:12:56;21.20;99.90
41678;DHT22;27364;49.026;8.712;2022-07-24T07:15:22;21.20;99.90
41678;DHT22;27364;49.026;8.712;2022-07-24T07:17:47;21.20;99.90
41678;DHT22;27364;49.026;8.712;2022-07-24T07:20:13;21.20;99.90
41678;DHT22;27364;49.026;8.712;2022-07-24T07:22:39;21.30;99.90
41678;DHT22;27364;49.026;8.712;2022-07-24T07:25:06;21.40;99.90
41678;DHT22;27364;49.026;8.712;2022-07-24T07:27:32;21.40;99.90
41678;DHT22;27364;49.026;8.712;2022-07-24T07:29:58;21.50;99.90
41678;DHT22;27364;49.026;8.712;2022-07-24T07:32:23;21.60;99.90
41678;DHT22;27364;49.026;8.712;2022-07-24T07:34:49;21.70;99.90
41678;DHT22;27364;49.026;8.712;2022-07-24T07:37:14;21.70;99.90
41678;DHT22;27364;49.026;8.712;2022-07-24T07:39:40;21.70;99.90
41678;DHT22;27364;49.026;8.712;2022-07-24T07:42:05;21.80;99.90
41678;DHT22;27364;49.026;8.712;2022-07-24T07:44:31;22.00;99.90
41678;DHT22;27364;49.026;8.712;2022-07-24T07:46:56;22.10;99.90
41678;DHT22;27364;49.026;8.712;2022-07-24T07:49:22;22.10;99.90
41678;DHT22;27364;49.026;8.712;2022-07-24T07:51:48;22.30;99.90
41678;DHT22;27364;49.026;8.712;2022-07-24T07:54:18;22.40;99.90
41678;DHT22;27364;49.026;8.712;2022-07-24T07:56:44;22.40;99.90
41678;DHT22;27364;49.026;8.712;2022-07-24T07:59:09;22.40;99.90
41678;DHT22;27364;49.026;8.712;2022-07-24T08:01:35;22.60;99.90
41678;DHT22;27364;49.026;8.712;2022-07-24T08:04:02;22.70;99.90
41678;DHT22;27364;49.026;8.712;2022-07-24T08:06:28;22.70;99.90
41678;DHT22;27364;49.026;8.712;2022-07-24T08:08:53;22.80;99.90
41678;DHT22;27364;49.026;8.712;2022-07-24T08:11:19;22.90;99.90
41678;DHT22;27364;49.026;8.712;2022-07-24T08:13:44;23.10;99.90
41678;DHT22;27364;49.026;8.712;2022-07-24T08:16:10;23.20;99.90
41678;DHT22;27364;49.026;8.712;2022-07-24T08:18:36;23.20;99.90
41678;DHT22;27364;49.026;8.712;2022-07-24T08:21:01;23.40;99.90
41678;DHT22;27364;49.026;8.712;2022-07-24T08:23:27;23.40;99.90
41678;DHT22;27364;49.026;8.712;2022-07-24T08:25:52;23.50;99.90
41678;DHT22;27364;49.026;8.712;2022-07-24T08:28:18;23.50;99.90
41678;DHT22;27364;49.026;8.712;2022-07-24T08:30:44;23.50;99.90
41678;DHT22;27364;49.026;8.712;2022-07-24T08:33:09;23.50;99.90
41678;DHT22;27364;49.026;8.712;2022-07-24T08:35:35;23.60;99.90
41678;DHT22;27364;49.026;8.712;2022-07-24T08:38:02;23.70;99.90
41678;DHT22;27364;49.026;8.712;2022-07-24T08:40:33;23.80;99.90
41678;DHT22;27364;49.026;8.712;2022-07-24T08:43:00;24.00;99.90
41678;DHT22;27364;49.026;8.712;2022-07-24T08:45:27;24.10;99.90
41678;DHT22;27364;49.026;8.712;2022-07-24T08:47:52;24.00;99.90
41678;DHT22;27364;49.026;8.712;2022-07-24T08:50:20;24.00;99.90
41678;DHT22;27364;49.026;8.712;2022-07-24T08:52:45;24.10;99.90
41678;DHT22;27364;49.026;8.712;2022-07-24T08:55:11;24.20;99.90
41678;DHT22;27364;49.026;8.712;2022-07-24T08:57:37;24.20;99.90
41678;DHT22;27364;49.026;8.712;2022-07-24T09:00:03;24.30;99.90
41678;DHT22;27364;49.026;8.712;2022-07-24T09:02:29;24.30;99.90
41678;DHT22;27364;49.026;8.712;2022-07-24T09:04:59;24.30;99.90
41678;DHT22;27364;49.026;8.712;2022-07-24T09:07:28;24.50;99.90
41678;DHT22;27364;49.026;8.712;2022-07-24T09:12:31;24.70;99.90
41678;DHT22;27364;49.026;8.712;2022-07-24T09:14:58;24.80;99.90
41678;DHT22;27364;49.026;8.712;2022-07-24T09:17:24;24.80;99.90
41678;DHT22;27364;49.026;8.712;2022-07-24T09:20:00;24.90;99.90
41678;DHT22;27364;49.026;8.712;2022-07-24T09:25:21;25.10;99.90
41678;DHT22;27364;49.026;8.712;2022-07-24T09:27:59;25.30;99.90
41678;DHT22;27364;49.026;8.712;2022-07-24T09:30:36;25.30;99.90
41678;DHT22;27364;49.026;8.712;2022-07-24T09:35:45;25.50;98.00
41678;DHT22;27364;49.026;8.712;2022-07-24T09:38:13;25.50;98.50
41678;DHT22;27364;49.026;8.712;2022-07-24T09:41:00;25.70;97.30
41678;DHT22;27364;49.026;8.712;2022-07-24T09:43:31;25.70;96.40
41678;DHT22;27364;49.026;8.712;2022-07-24T09:46:02;25.60;95.00
41678;DHT22;27364;49.026;8.712;2022-07-24T09:48:33;25.70;96.10
41678;DHT22;27364;49.026;8.712;2022-07-24T09:51:10;25.80;95.50
41678;DHT22;27364;49.026;8.712;2022-07-24T09:53:36;26.00;95.30
41678;DHT22;27364;49.026;8.712;2022-07-24T09:56:06;26.00;93.30
41678;DHT22;27364;49.026;8.712;2022-07-24T09:58:35;26.00;93.60
41678;DHT22;27364;49.026;8.712;2022-07-24T10:01:02;26.20;94.90
41678;DHT22;27364;49.026;8.712;2022-07-24T10:03:31;26.30;92.30
41678;DHT22;27364;49.026;8.712;2022-07-24T10:06:00;26.30;92.00
41678;DHT22;27364;49.026;8.712;2022-07-24T10:08:26;26.30;92.20
41678;DHT22;27364;49.026;8.712;2022-07-24T10:10:52;26.30;91.00
41678;DHT22;27364;49.026;8.712;2022-07-24T10:13:18;26.70;90.70
41678;DHT22;27364;49.026;8.712;2022-07-24T10:15:52;26.60;89.10
41678;DHT22;27364;49.026;8.712;2022-07-24T10:18:20;26.60;88.60
41678;DHT22;27364;49.026;8.712;2022-07-24T10:20:46;26.70;85.00
41678;DHT22;27364;49.026;8.712;2022-07-24T10:23:22;26.70;85.30
41678;DHT22;27364;49.026;8.712;2022-07-24T10:26:06;26.80;85.90
41678;DHT22;27364;49.026;8.712;2022-07-24T10:31:09;26.90;80.20
41678;DHT22;27364;49.026;8.712;2022-07-24T10:33:36;27.00;76.80
41678;DHT22;27364;49.026;8.712;2022-07-24T10:36:07;27.10;77.60
41678;DHT22;27364;49.026;8.712;2022-07-24T10:38:39;27.10;80.90
41678;DHT22;27364;49.026;8.712;2022-07-24T10:41:12;27.30;78.50
41678;DHT22;27364;49.026;8.712;2022-07-24T10:43:38;27.20;78.50
41678;DHT22;27364;49.026;8.712;2022-07-24T10:48:31;27.50;74.00
41678;DHT22;27364;49.026;8.712;2022-07-24T10:56:24;27.80;76.60
41678;DHT22;27364;49.026;8.712;2022-07-24T11:04:03;28.00;67.60
41678;DHT22;27364;49.026;8.712;2022-07-24T11:06:47;27.90;65.30
41678;DHT22;27364;49.026;8.712;2022-07-24T11:09:14;27.80;66.60
41678;DHT22;27364;49.026;8.712;2022-07-24T11:11:43;28.10;65.40
41678;DHT22;27364;49.026;8.712;2022-07-24T11:20:01;28.30;68.10
41678;DHT22;27364;49.026;8.712;2022-07-24T11:22:48;28.20;70.10
41678;DHT22;27364;49.026;8.712;2022-07-24T11:25:16;28.40;68.70
41678;DHT22;27364;49.026;8.712;2022-07-24T11:30:13;28.40;68.80
41678;DHT22;27364;49.026;8.712;2022-07-24T11:32:40;28.50;71.00
41678;DHT22;27364;49.026;8.712;2022-07-24T11:35:07;28.40;69.40
41678;DHT22;27364;49.026;8.712;2022-07-24T11:37:36;28.50;68.80
41678;DHT22;27364;49.026;8.712;2022-07-24T11:40:02;28.70;66.40
41678;DHT22;27364;49.026;8.712;2022-07-24T11:42:29;28.70;62.50
41678;DHT22;27364;49.026;8.712;2022-07-24T11:44:54;28.80;65.60
41678;DHT22;27364;49.026;8.712;2022-07-24T11:47:23;28.80;63.80
41678;DHT22;27364;49.026;8.712;2022-07-24T11:50:00;28.60;66.30
41678;DHT22;27364;49.026;8.712;2022-07-24T11:52:35;28.70;68.40
41678;DHT22;27364;49.026;8.712;2022-07-24T11:55:06;28.80;64.90
41678;DHT22;27364;49.026;8.712;2022-07-24T11:57:35;28.90;64.60
41678;DHT22;27364;49.026;8.712;2022-07-24T12:00:07;29.30;65.50
41678;DHT22;27364;49.026;8.712;2022-07-24T12:02:35;29.40;62.90
41678;DHT22;27364;49.026;8.712;2022-07-24T12:05:00;29.40;63.70
41678;DHT22;27364;49.026;8.712;2022-07-24T12:07:27;29.50;60.00
41678;DHT22;27364;49.026;8.712;2022-07-24T12:09:58;29.50;59.90
41678;DHT22;27364;49.026;8.712;2022-07-24T12:12:26;29.40;62.60
41678;DHT22;27364;49.026;8.712;2022-07-24T12:14:59;29.30;61.20
41678;DHT22;27364;49.026;8.712;2022-07-24T12:17:26;29.30;61.10
41678;DHT22;27364;49.026;8.712;2022-07-24T12:19:56;29.20;63.40
41678;DHT22;27364;49.026;8.712;2022-07-24T12:22:23;29.20;64.40
41678;DHT22;27364;49.026;8.712;2022-07-24T12:24:51;29.20;62.70
41678;DHT22;27364;49.026;8.712;2022-07-24T12:27:34;29.20;63.60
41678;DHT22;27364;49.026;8.712;2022-07-24T12:30:00;29.30;61.40
41678;DHT22;27364;49.026;8.712;2022-07-24T12:32:26;29.30;62.40
41678;DHT22;27364;49.026;8.712;2022-07-24T12:34:55;29.40;62.00
41678;DHT22;27364;49.026;8.712;2022-07-24T12:37:22;29.60;60.90
41678;DHT22;27364;49.026;8.712;2022-07-24T12:39:48;29.80;62.10
41678;DHT22;27364;49.026;8.712;2022-07-24T12:42:15;30.00;61.60
41678;DHT22;27364;49.026;8.712;2022-07-24T12:44:42;30.20;56.90
41678;DHT22;27364;49.026;8.712;2022-07-24T12:47:09;30.30;56.90
41678;DHT22;27364;49.026;8.712;2022-07-24T12:49:45;30.10;57.10
41678;DHT22;27364;49.026;8.712;2022-07-24T12:52:25;30.10;57.90
41678;DHT22;27364;49.026;8.712;2022-07-24T12:54:53;30.20;60.30
41678;DHT22;27364;49.026;8.712;2022-07-24T12:57:22;30.20;57.80
41678;DHT22;27364;49.026;8.712;2022-07-24T12:59:49;30.30;57.20
41678;DHT22;27364;49.026;8.712;2022-07-24T13:02:21;30.20;58.60
41678;DHT22;27364;49.026;8.712;2022-07-24T13:04:48;30.10;59.10
41678;DHT22;27364;49.026;8.712;2022-07-24T13:07:16;30.20;57.80
41678;DHT22;27364;49.026;8.712;2022-07-24T13:09:42;30.30;59.00
41678;DHT22;27364;49.026;8.712;2022-07-24T13:12:09;30.50;59.80
41678;DHT22;27364;49.026;8.712;2022-07-24T13:14:36;30.60;59.20
41678;DHT22;27364;49.026;8.712;2022-07-24T13:17:20;30.60;57.80
41678;DHT22;27364;49.026;8.712;2022-07-24T13:19:48;30.50;60.00
41678;DHT22;27364;49.026;8.712;2022-07-24T13:22:14;30.50;58.10
41678;DHT22;27364;49.026;8.712;2022-07-24T13:24:40;30.50;58.90
41678;DHT22;27364;49.026;8.712;2022-07-24T13:27:07;30.80;58.60
41678;DHT22;27364;49.026;8.712;2022-07-24T13:29:32;31.10;57.70
41678;DHT22;27364;49.026;8.712;2022-07-24T13:32:00;31.20;56.80
41678;DHT22;27364;49.026;8.712;2022-07-24T13:34:25;31.10;55.00
41678;DHT22;27364;49.026;8.712;2022-07-24T13:36:52;31.10;56.00
41678;DHT22;27364;49.026;8.712;2022-07-24T13:39:18;31.00;54.40
41678;DHT22;27364;49.026;8.712;2022-07-24T13:41:44;30.90;57.00
41678;DHT22;27364;49.026;8.712;2022-07-24T13:44:09;30.70;57.30
41678;DHT22;27364;49.026;8.712;2022-07-24T13:46:35;30.70;57.70
41678;DHT22;27364;49.026;8.712;2022-07-24T13:49:03;30.80;57.60
41678;DHT22;27364;49.026;8.712;2022-07-24T13:51:29;30.70;56.80
41678;DHT22;27364;49.026;8.712;2022-07-24T13:53:54;30.70;55.60
41678;DHT22;27364;49.026;8.712;2022-07-24T13:56:20;30.80;56.90
41678;DHT22;27364;49.026;8.712;2022-07-24T13:58:47;30.80;55.00
41678;DHT22;27364;49.026;8.712;2022-07-24T14:01:13;30.80;58.90
41678;DHT22;27364;49.026;8.712;2022-07-24T14:03:39;30.80;59.70
41678;DHT22;27364;49.026;8.712;2022-07-24T14:06:08;30.90;58.40
41678;DHT22;27364;49.026;8.712;2022-07-24T14:08:34;31.00;55.20
41678;DHT22;27364;49.026;8.712;2022-07-24T14:11:00;30.90;54.70
41678;DHT22;27364;49.026;8.712;2022-07-24T14:13:26;30.90;57.00
41678;DHT22;27364;49.026;8.712;2022-07-24T14:15:51;30.80;55.30
41678;DHT22;27364;49.026;8.712;2022-07-24T14:18:17;30.80;57.80
41678;DHT22;27364;49.026;8.712;2022-07-24T14:20:43;30.70;57.30
41678;DHT22;27364;49.026;8.712;2022-07-24T14:23:08;30.90;57.80
41678;DHT22;27364;49.026;8.712;2022-07-24T14:25:34;31.30;56.10
41678;DHT22;27364;49.026;8.712;2022-07-24T14:28:00;31.10;53.60
41678;DHT22;27364;49.026;8.712;2022-07-24T14:30:25;31.00;56.40
41678;DHT22;27364;49.026;8.712;2022-07-24T14:32:51;31.00;54.30
41678;DHT22;27364;49.026;8.712;2022-07-24T14:35:16;31.00;57.40
41678;DHT22;27364;49.026;8.712;2022-07-24T14:37:42;31.10;58.60
41678;DHT22;27364;49.026;8.712;2022-07-24T14:40:08;31.20;55.40
41678;DHT22;27364;49.026;8.712;2022-07-24T14:42:34;31.00;53.40
41678;DHT22;27364;49.026;8.712;2022-07-24T14:45:00;30.80;56.00
41678;DHT22;27364;49.026;8.712;2022-07-24T14:47:25;30.90;55.80
41678;DHT22;27364;49.026;8.712;2022-07-24T14:49:51;30.70;57.30
41678;DHT22;27364;49.026;8.712;2022-07-24T14:52:17;30.80;55.00
41678;DHT22;27364;49.026;8.712;2022-07-24T14:54:44;31.00;56.50
41678;DHT22;27364;49.026;8.712;2022-07-24T14:57:11;31.10;54.00
41678;DHT22;27364;49.026;8.712;2022-07-24T14:59:36;31.00;54.80
41678;DHT22;27364;49.026;8.712;2022-07-24T15:02:02;30.90;55.60
41678;DHT22;27364;49.026;8.712;2022-07-24T15:04:28;30.90;53.00
41678;DHT22;27364;49.026;8.712;2022-07-24T15:06:53;30.90;54.60
41678;DHT22;27364;49.026;8.712;2022-07-24T15:09:19;30.70;55.30
41678;DHT22;27364;49.026;8.712;2022-07-24T15:11:44;30.50;55.80
41678;DHT22;27364;49.026;8.712;2022-07-24T15:14:10;30.70;53.70
41678;DHT22;27364;49.026;8.712;2022-07-24T15:16:35;30.50;54.30
41678;DHT22;27364;49.026;8.712;2022-07-24T15:19:01;30.40;55.80
41678;DHT22;27364;49.026;8.712;2022-07-24T15:21:26;30.40;54.30
41678;DHT22;27364;49.026;8.712;2022-07-24T15:23:52;30.40;53.60
41678;DHT22;27364;49.026;8.712;2022-07-24T15:26:17;30.40;54.30
41678;DHT22;27364;49.026;8.712;2022-07-24T15:28:43;30.10;54.00
41678;DHT22;27364;49.026;8.712;2022-07-24T15:31:08;30.10;56.30
41678;DHT22;27364;49.026;8.712;2022-07-24T15:33:35;30.00;56.80
41678;DHT22;27364;49.026;8.712;2022-07-24T15:36:01;29.90;56.00
41678;DHT22;27364;49.026;8.712;2022-07-24T15:38:26;29.90;57.10
41678;DHT22;27364;49.026;8.712;2022-07-24T15:40:52;29.90;58.30
41678;DHT22;27364;49.026;8.712;2022-07-24T15:43:17;30.00;56.30
41678;DHT22;27364;49.026;8.712;2022-07-24T15:45:43;30.10;55.20
41678;DHT22;27364;49.026;8.712;2022-07-24T15:48:08;30.00;54.70
41678;DHT22;27364;49.026;8.712;2022-07-24T15:50:34;30.00;55.40
41678;DHT22;27364;49.026;8.712;2022-07-24T15:53:00;30.00;56.60
41678;DHT22;27364;49.026;8.712;2022-07-24T15:55:25;30.00;57.20
41678;DHT22;27364;49.026;8.712;2022-07-24T15:57:51;30.00;55.90
41678;DHT22;27364;49.026;8.712;2022-07-24T16:00:17;30.00;56.60